Time;durP1;ratioP1;P1;durP2;ratioP2;P2;SDS_P1;SDS_P2;PMS_P1;PMS_P2;Temp;Humidity;BMP_temperature;BMP_pressure;BME280_temperature;BME280_humidity;BME280_pressure;Samples;Min_cycle;Max_cycle;Signal;HPM_P1;HPM_P2
2022/09/27 00:02:10;;;;;;;0.53;0.53;;;;;8.80;94265.00;;;;5096491;28;20230;-60
2022/09/27 00:04:39;;;;;;;0.50;0.50;;;;;8.80;94251.00;;;;5114430;28;20194;-60
2022/09/27 00:07:06;;;;;;;0.53;0.53;;;;;8.90;94259.00;;;;5114553;28;20354;-60
2022/09/27 00:09:36;;;;;;;0.50;0.50;;;;;8.90;94258.00;;;;5096382;28;20209;-60
2022/09/27 00:12:03;;;;;;;0.50;0.50;;;;;8.90;94255.00;;;;5114333;28;20204;-60
2022/09/27 00:14:30;;;;;;;0.57;0.57;;;;;9.00;94250.00;;;;5114188;28;20229;-60
2022/09/27 00:16:58;;;;;;;1.57;1.47;;;;;9.00;94251.00;;;;5114185;28;20196;-60
2022/09/27 00:19:25;;;;;;;0.67;0.67;;;;;8.90;94247.00;;;;5113974;28;20209;-60
2022/09/27 00:21:52;;;;;;;0.50;0.50;;;;;9.00;94252.00;;;;5113877;28;20226;-60
2022/09/27 00:24:20;;;;;;;0.50;0.50;;;;;9.10;94248.00;;;;5114073;28;20206;-60
2022/09/27 00:26:48;;;;;;;0.57;0.57;;;;;8.90;94239.00;;;;5113957;28;20228;-60
2022/09/27 00:29:17;;;;;;;0.70;0.70;;;;;9.00;94231.00;;;;5114106;28;20218;-60
2022/09/27 00:31:44;;;;;;;0.50;0.50;;;;;9.00;94231.00;;;;5113875;28;20229;-61
2022/09/27 00:34:18;;;;;;;0.50;0.50;;;;;9.10;94228.00;;;;5113880;28;20230;-60
2022/09/27 00:36:45;;;;;;;0.60;0.60;;;;;9.00;94224.00;;;;5113854;28;20284;-63
2022/09/27 00:39:11;;;;;;;0.57;0.57;;;;;9.10;94221.00;;;;5113803;28;20214;-60
2022/09/27 00:41:39;;;;;;;0.50;0.50;;;;;9.00;94228.00;;;;5113815;28;20269;-62
2022/09/27 00:44:44;;;;;;;0.50;0.50;;;;;9.10;94213.00;;;;5113621;28;20255;-60
2022/09/27 00:47:16;;;;;;;0.67;0.67;;;;;9.00;94214.00;;;;5113619;28;20685;-60
2022/09/27 00:49:46;;;;;;;0.50;0.50;;;;;9.10;94218.00;;;;5113707;28;20610;-60
2022/09/27 00:52:17;;;;;;;0.50;0.50;;;;;9.10;94217.00;;;;5113843;28;20193;-60
2022/09/27 00:54:49;;;;;;;0.60;0.60;;;;;9.00;94204.00;;;;5113582;28;20222;-60
2022/09/27 00:57:16;;;;;;;0.50;0.50;;;;;9.00;94216.00;;;;5113628;28;20213;-59
2022/09/27 00:59:47;;;;;;;0.50;0.50;;;;;8.80;94208.00;;;;5095485;28;20565;-60
2022/09/27 01:02:17;;;;;;;0.40;0.40;;;;;8.80;94213.00;;;;5113743;28;20201;-63
2022/09/27 01:04:45;;;;;;;0.50;0.50;;;;;8.90;94212.00;;;;5113672;28;20280;-62
2022/09/27 01:07:12;;;;;;;0.50;0.50;;;;;8.80;94220.00;;;;5113526;28;20186;-62
2022/09/27 01:09:41;;;;;;;0.47;0.47;;;;;8.90;94209.00;;;;5113660;28;20198;-62
2022/09/27 01:12:17;;;;;;;0.50;0.50;;;;;8.80;94212.00;;;;5095636;28;20308;-62
2022/09/27 01:15:04;;;;;;;0.40;0.40;;;;;8.80;94214.00;;;;5095430;28;20571;-60
2022/09/27 01:17:43;;;;;;;0.83;0.83;;;;;8.80;94210.00;;;;5113251;28;20217;-60
2022/09/27 01:20:50;;;;;;;0.43;0.43;;;;;8.90;94221.00;;;;5113417;28;20296;-60
2022/09/27 01:23:38;;;;;;;0.50;0.50;;;;;9.00;94221.00;;;;5113305;28;20213;-61
2022/09/27 01:26:13;;;;;;;0.40;0.40;;;;;9.20;94221.00;;;;5113460;28;20226;-60
2022/09/27 01:28:55;;;;;;;0.50;0.50;;;;;9.20;94215.00;;;;5113267;28;20225;-59
2022/09/27 01:31:32;;;;;;;0.50;0.50;;;;;9.10;94222.00;;;;5113365;28;20280;-59
2022/09/27 01:34:04;;;;;;;0.60;0.60;;;;;9.10;94217.00;;;;5113155;28;20308;-60
2022/09/27 01:36:41;;;;;;;0.60;0.60;;;;;9.10;94211.00;;;;5116767;28;20186;-59
2022/09/27 01:39:26;;;;;;;0.50;0.50;;;;;9.10;94219.00;;;;5116701;28;20269;-60
2022/09/27 01:42:01;;;;;;;0.50;0.50;;;;;9.20;94215.00;;;;5116655;28;20198;-59
2022/09/27 01:44:32;;;;;;;0.47;0.47;;;;;9.10;94217.00;;;;5116576;28;20221;-59
2022/09/27 01:47:03;;;;;;;0.53;0.53;;;;;9.10;94230.00;;;;5116641;28;20197;-59
2022/09/27 01:49:44;;;;;;;0.57;0.57;;;;;9.10;94226.00;;;;5116615;28;20304;-60
2022/09/27 01:52:16;;;;;;;0.50;0.50;;;;;9.00;94249.00;;;;5116565;28;20174;-59
2022/09/27 01:54:46;;;;;;;0.53;0.53;;;;;9.10;94243.00;;;;5098358;28;20221;-59
2022/09/27 01:57:19;;;;;;;0.50;0.50;;;;;9.20;94250.00;;;;5116328;28;20228;-58
2022/09/27 01:59:53;;;;;;;0.50;0.50;;;;;9.20;94253.00;;;;5116480;28;20215;-58
2022/09/27 02:02:24;;;;;;;1.00;1.00;;;;;9.10;94263.00;;;;5116301;28;20249;-59
2022/09/27 02:04:55;;;;;;;0.50;0.50;;;;;9.10;94264.00;;;;5116509;28;20241;-59
2022/09/27 02:07:28;;;;;;;0.50;0.50;;;;;9.00;94291.00;;;;5116296;28;20304;-59
2022/09/27 02:10:00;;;;;;;0.50;0.50;;;;;8.60;94281.00;;;;5098232;28;20194;-59
2022/09/27 02:12:30;;;;;;;0.40;0.40;;;;;8.40;94265.00;;;;5116219;28;20514;-59
2022/09/27 02:15:04;;;;;;;0.60;0.60;;;;;8.40;94256.00;;;;5116513;28;20541;-59
2022/09/27 02:17:39;;;;;;;0.40;0.40;;;;;8.50;94257.00;;;;5116253;28;20194;-60
2022/09/27 02:20:14;;;;;;;0.60;0.60;;;;;8.40;94257.00;;;;5116183;28;20609;-60
2022/09/27 02:22:47;;;;;;;0.50;0.50;;;;;8.40;94258.00;;;;5116188;28;20208;-58
2022/09/27 02:25:22;;;;;;;0.50;0.50;;;;;8.30;94251.00;;;;5116064;28;20226;-60
2022/09/27 02:27:56;;;;;;;0.40;0.40;;;;;8.50;94257.00;;;;5116151;28;20284;-60
2022/09/27 02:30:23;;;;;;;0.40;0.40;;;;;8.40;94253.00;;;;5116001;28;20681;-60
2022/09/27 02:32:52;;;;;;;0.50;0.50;;;;;8.40;94261.00;;;;5116034;28;20280;-60
2022/09/27 02:35:25;;;;;;;0.60;0.60;;;;;8.40;94269.00;;;;5115920;28;20225;-60
2022/09/27 02:37:53;;;;;;;0.60;0.60;;;;;8.30;94266.00;;;;5115928;28;20284;-61
2022/09/27 02:40:20;;;;;;;0.57;0.57;;;;;8.20;94264.00;;;;5116062;28;20577;-60
2022/09/27 02:42:47;;;;;;;0.40;0.40;;;;;8.30;94271.00;;;;5115729;28;20285;-60
2022/09/27 02:45:17;;;;;;;0.60;0.60;;;;;8.30;94271.00;;;;5097760;28;20229;-61
2022/09/27 02:48:01;;;;;;;0.50;0.50;;;;;8.20;94284.00;;;;5115724;28;20240;-60
2022/09/27 02:50:50;;;;;;;0.50;0.50;;;;;8.20;94278.00;;;;5115777;28;20194;-60
2022/09/27 02:53:30;;;;;;;1.23;0.90;;;;;8.10;94284.00;;;;5094356;28;20202;-60
2022/09/27 02:56:06;;;;;;;1.17;1.17;;;;;8.00;94269.00;;;;5115511;28;20311;-59
2022/09/27 02:58:45;;;;;;;0.57;0.57;;;;;8.10;94290.00;;;;5115689;28;20274;-59
2022/09/27 03:01:21;;;;;;;0.53;0.53;;;;;8.20;94291.00;;;;5115564;28;20211;-60
2022/09/27 03:03:54;;;;;;;0.40;0.40;;;;;8.10;94281.00;;;;5115455;28;20228;-60
2022/09/27 03:06:23;;;;;;;0.60;0.60;;;;;8.20;94278.00;;;;5097491;28;20297;-59
2022/09/27 03:08:50;;;;;;;2.53;1.57;;;;;8.20;94280.00;;;;5115324;28;20252;-60
2022/09/27 03:11:17;;;;;;;0.57;0.57;;;;;8.30;94288.00;;;;5115239;28;20190;-59
2022/09/27 03:13:46;;;;;;;1.00;1.00;;;;;8.30;94299.00;;;;5097308;28;20209;-60
2022/09/27 03:16:15;;;;;;;0.93;0.93;;;;;8.30;94297.00;;;;5115138;28;20339;-59
2022/09/27 03:18:42;;;;;;;0.57;0.57;;;;;8.30;94306.00;;;;5115198;28;20197;-60
2022/09/27 03:21:10;;;;;;;0.67;0.67;;;;;8.10;94310.00;;;;5115067;28;20752;-59
2022/09/27 03:23:39;;;;;;;1.20;1.20;;;;;8.20;94317.00;;;;5097057;28;20198;-60
2022/09/27 03:26:06;;;;;;;0.70;0.70;;;;;8.20;94319.00;;;;5115005;28;20603;-60
2022/09/27 03:28:34;;;;;;;0.63;0.63;;;;;8.30;94324.00;;;;5097011;28;20579;-60
2022/09/27 03:31:03;;;;;;;0.60;0.60;;;;;8.30;94329.00;;;;5097082;28;20229;-60
2022/09/27 03:33:32;;;;;;;0.60;0.60;;;;;8.20;94319.00;;;;5114914;28;20498;-60
2022/09/27 03:35:59;;;;;;;0.50;0.50;;;;;8.20;94319.00;;;;5097086;28;20222;-60
2022/09/27 03:38:27;;;;;;;0.77;0.77;;;;;8.20;94323.00;;;;5114910;28;20296;-61
2022/09/27 03:40:54;;;;;;;0.77;0.77;;;;;8.20;94316.00;;;;5114883;28;20229;-60
2022/09/27 03:43:20;;;;;;;0.70;0.70;;;;;8.30;94315.00;;;;5096796;28;20214;-61
2022/09/27 03:45:47;;;;;;;0.50;0.50;;;;;8.30;94313.00;;;;5114876;28;20202;-60
2022/09/27 03:48:16;;;;;;;0.90;0.90;;;;;8.10;94321.00;;;;5114678;28;20296;-57
2022/09/27 03:50:43;;;;;;;0.63;0.63;;;;;8.20;94317.00;;;;5114788;28;20257;-60
2022/09/27 03:53:12;;;;;;;0.40;0.40;;;;;8.10;94314.00;;;;5114658;28;20217;-60
2022/09/27 03:55:40;;;;;;;0.50;0.50;;;;;8.00;94320.00;;;;5114480;28;20241;-59
2022/09/27 03:58:07;;;;;;;1.07;1.07;;;;;8.10;94324.00;;;;5095719;28;20249;-60
2022/09/27 04:00:36;;;;;;;5.20;1.00;;;;;8.00;94312.00;;;;5114608;28;20185;-59
2022/09/27 04:03:03;;;;;;;0.60;0.60;;;;;8.20;94325.00;;;;5114444;28;20198;-60
2022/09/27 04:05:30;;;;;;;0.80;0.80;;;;;8.20;94323.00;;;;5114429;28;20625;-60
2022/09/27 04:07:59;;;;;;;0.50;0.50;;;;;8.20;94321.00;;;;5096289;28;20638;-60
2022/09/27 04:10:26;;;;;;;1.63;1.43;;;;;8.10;94321.00;;;;5114361;28;20200;-59
2022/09/27 04:12:53;;;;;;;0.60;0.60;;;;;8.10;94321.00;;;;5114319;28;20253;-59
2022/09/27 04:15:20;;;;;;;0.47;0.47;;;;;8.20;94326.00;;;;5114245;28;20224;-60
2022/09/27 04:17:47;;;;;;;0.57;0.57;;;;;8.20;94334.00;;;;5114346;28;20351;-59
2022/09/27 04:20:14;;;;;;;0.77;0.77;;;;;8.40;94328.00;;;;5114158;28;20301;-60
2022/09/27 04:22:42;;;;;;;0.60;0.60;;;;;8.30;94325.00;;;;5114236;28;20645;-58
2022/09/27 04:25:10;;;;;;;0.80;0.80;;;;;8.20;94331.00;;;;5114009;28;20222;-59
2022/09/27 04:27:37;;;;;;;6.13;1.13;;;;;8.10;94334.00;;;;5096339;28;20545;-60
2022/09/27 04:30:06;;;;;;;0.60;0.60;;;;;8.00;94333.00;;;;5114155;28;20250;-61
2022/09/27 04:32:33;;;;;;;0.50;0.50;;;;;8.10;94330.00;;;;5114141;28;20220;-61
2022/09/27 04:37:47;;;;;;;0.80;0.73;;;;;8.10;94331.00;;;;5114184;28;20701;-63
2022/09/27 04:40:14;;;;;;;0.50;0.50;;;;;8.20;94330.00;;;;5113999;28;20328;-62
2022/09/27 04:42:41;;;;;;;0.60;0.60;;;;;8.20;94324.00;;;;5113959;28;20194;-60
2022/09/27 04:45:12;;;;;;;1.10;1.03;;;;;8.20;94333.00;;;;5113752;28;20301;-59
2022/09/27 04:47:43;;;;;;;5.40;2.20;;;;;8.30;94333.00;;;;5096002;28;20515;-60
2022/09/27 04:50:10;;;;;;;0.80;0.80;;;;;8.20;94340.00;;;;5113719;28;20213;-60
2022/09/27 04:52:37;;;;;;;0.40;0.40;;;;;8.10;94344.00;;;;5113890;28;20197;-59
2022/09/27 04:55:05;;;;;;;0.57;0.57;;;;;8.10;94344.00;;;;5113576;28;20320;-60
2022/09/27 04:57:32;;;;;;;0.60;0.60;;;;;8.00;94348.00;;;;5095744;28;20667;-60
2022/09/27 04:59:59;;;;;;;0.50;0.50;;;;;8.00;94342.00;;;;5113646;28;20248;-60
2022/09/27 05:02:27;;;;;;;0.50;0.50;;;;;8.10;94347.00;;;;5113611;28;20209;-60
2022/09/27 05:04:55;;;;;;;0.60;0.60;;;;;7.90;94343.00;;;;5113637;28;20285;-60
2022/09/27 05:07:22;;;;;;;1.23;0.97;;;;;8.00;94353.00;;;;5113625;28;20285;-60
2022/09/27 05:09:49;;;;;;;0.43;0.43;;;;;8.00;94368.00;;;;5112386;28;20301;-61
2022/09/27 05:12:18;;;;;;;0.60;0.60;;;;;7.90;94363.00;;;;5113506;28;20255;-60
2022/09/27 05:14:45;;;;;;;0.50;0.50;;;;;8.00;94371.00;;;;5113459;28;20302;-63
2022/09/27 05:17:12;;;;;;;0.50;0.50;;;;;7.80;94364.00;;;;5113674;28;20280;-62
2022/09/27 05:19:40;;;;;;;0.50;0.50;;;;;7.70;94373.00;;;;5113628;28;20220;-65
2022/09/27 05:22:07;;;;;;;0.60;0.60;;;;;7.60;94363.00;;;;5113633;28;20650;-66
2022/09/27 05:24:34;;;;;;;0.53;0.53;;;;;7.70;94381.00;;;;5113598;28;20194;-64
2022/09/27 05:27:02;;;;;;;0.50;0.50;;;;;7.80;94373.00;;;;5113709;28;20205;-62
2022/09/27 05:29:29;;;;;;;0.50;0.50;;;;;7.90;94387.00;;;;5113614;28;20205;-59
2022/09/27 05:31:56;;;;;;;0.67;0.67;;;;;7.80;94394.00;;;;5113625;28;20207;-61
2022/09/27 05:34:23;;;;;;;0.50;0.50;;;;;7.70;94389.00;;;;5113289;28;20221;-60
2022/09/27 05:36:51;;;;;;;0.50;0.50;;;;;7.80;94396.00;;;;5113357;28;20255;-61
2022/09/27 05:39:18;;;;;;;0.50;0.50;;;;;7.80;94400.00;;;;5113198;28;20272;-57
2022/09/27 05:41:46;;;;;;;0.60;0.60;;;;;7.90;94400.00;;;;5113158;28;20212;-60
2022/09/27 05:44:13;;;;;;;0.60;0.60;;;;;7.90;94406.00;;;;5113181;28;20529;-60
2022/09/27 05:46:40;;;;;;;0.50;0.50;;;;;7.80;94420.00;;;;5095359;28;20281;-60
2022/09/27 05:49:07;;;;;;;0.60;0.60;;;;;7.80;94424.00;;;;5113275;28;20285;-60
2022/09/27 05:51:34;;;;;;;0.60;0.60;;;;;7.80;94421.00;;;;5113118;28;20218;-60
2022/09/27 05:54:03;;;;;;;0.50;0.50;;;;;7.70;94438.00;;;;5112988;28;20210;-61
2022/09/27 05:56:30;;;;;;;0.50;0.50;;;;;7.70;94438.00;;;;5113041;28;20277;-60
2022/09/27 05:58:57;;;;;;;0.60;0.60;;;;;7.60;94441.00;;;;5113106;28;20190;-60
2022/09/27 06:01:26;;;;;;;0.50;0.50;;;;;7.60;94441.00;;;;5112912;28;20250;-60
2022/09/27 06:03:53;;;;;;;0.50;0.50;;;;;7.70;94443.00;;;;5094852;28;20212;-61
2022/09/27 06:06:21;;;;;;;0.50;0.50;;;;;7.60;94450.00;;;;5112782;28;20247;-60
2022/09/27 06:08:48;;;;;;;0.87;0.87;;;;;7.70;94453.00;;;;5113143;28;20201;-60
2022/09/27 06:11:16;;;;;;;0.53;0.53;;;;;7.80;94458.00;;;;5112988;28;20257;-60
2022/09/27 06:13:43;;;;;;;0.60;0.60;;;;;7.90;94461.00;;;;5112935;28;20221;-60
2022/09/27 06:16:11;;;;;;;0.50;0.50;;;;;7.80;94467.00;;;;5094875;28;20233;-60
2022/09/27 06:18:38;;;;;;;0.47;0.47;;;;;7.70;94466.00;;;;5112814;28;20202;-59
2022/09/27 06:21:07;;;;;;;0.50;0.50;;;;;7.70;94459.00;;;;5114744;28;20233;-60
2022/09/27 06:23:34;;;;;;;0.60;0.60;;;;;7.80;94459.00;;;;5116423;28;20190;-60
2022/09/27 06:26:02;;;;;;;0.50;0.50;;;;;7.90;94488.00;;;;5116453;28;20541;-60
2022/09/27 06:28:30;;;;;;;0.50;0.50;;;;;7.70;94479.00;;;;5116236;28;20213;-60
2022/09/27 06:30:59;;;;;;;0.53;0.53;;;;;7.70;94468.00;;;;5116064;28;20221;-60
2022/09/27 06:33:28;;;;;;;0.53;0.53;;;;;7.90;94467.00;;;;5098373;28;20178;-60
2022/09/27 06:35:55;;;;;;;0.50;0.50;;;;;7.80;94467.00;;;;5116171;28;20258;-61
2022/09/27 06:38:23;;;;;;;0.50;0.50;;;;;7.60;94481.00;;;;5115983;28;20252;-60
2022/09/27 06:40:50;;;;;;;0.50;0.50;;;;;7.70;94487.00;;;;5116031;28;20538;-61
2022/09/27 06:43:19;;;;;;;0.40;0.40;;;;;7.60;94490.00;;;;5115874;28;20213;-60
2022/09/27 06:45:47;;;;;;;0.50;0.50;;;;;7.70;94480.00;;;;5115705;28;20210;-61
2022/09/27 06:48:16;;;;;;;0.50;0.50;;;;;7.70;94481.00;;;;5115853;28;20193;-60
2022/09/27 06:50:45;;;;;;;0.50;0.50;;;;;7.90;94419.00;;;;5115768;28;20273;-58
2022/09/27 06:53:14;;;;;;;0.50;0.50;;;;;7.80;94482.00;;;;5097776;28;20667;-58
2022/09/27 06:55:41;;;;;;;0.50;0.50;;;;;7.90;94489.00;;;;5115488;28;20760;-58
2022/09/27 07:01:02;;;;;;;0.50;0.50;;;;;7.80;94499.00;;;;5058366;28;20211;-61
2022/09/27 07:03:31;;;;;;;0.50;0.50;;;;;7.70;94501.00;;;;5115737;28;20214;-60
2022/09/27 07:06:00;;;;;;;0.80;0.80;;;;;7.80;94504.00;;;;5115740;28;20201;-62
2022/09/27 07:08:28;;;;;;;0.40;0.40;;;;;7.80;94510.00;;;;5097707;28;20222;-64
2022/09/27 07:11:00;;;;;;;0.60;0.60;;;;;7.90;94512.00;;;;5115666;28;20202;-62
2022/09/27 07:13:33;;;;;;;0.70;0.70;;;;;7.90;94509.00;;;;5097517;28;20699;-64
2022/09/27 07:16:03;;;;;;;0.50;0.50;;;;;8.20;94511.00;;;;5115601;28;20229;-62
2022/09/27 07:18:30;;;;;;;0.50;0.50;;;;;8.30;94519.00;;;;5097843;28;20639;-62
2022/09/27 07:20:59;;;;;;;0.47;0.47;;;;;8.00;94509.00;;;;5099377;28;20225;-65
2022/09/27 07:23:26;;;;;;;0.40;0.40;;;;;8.10;94515.00;;;;5099488;28;20198;-63
2022/09/27 07:25:54;;;;;;;0.50;0.50;;;;;8.30;94511.00;;;;5099550;28;20232;-63
2022/09/27 07:28:21;;;;;;;0.50;0.50;;;;;8.30;94510.00;;;;5116810;28;20209;-62
2022/09/27 07:30:48;;;;;;;0.50;0.50;;;;;8.40;94516.00;;;;5115604;28;20224;-62
2022/09/27 07:33:16;;;;;;;0.50;0.50;;;;;8.50;94515.00;;;;5114192;28;20285;-62
2022/09/27 07:35:43;;;;;;;0.60;0.60;;;;;8.40;94523.00;;;;5115216;28;20218;-64
2022/09/27 07:38:12;;;;;;;0.40;0.40;;;;;8.40;94521.00;;;;5115119;28;20308;-62
2022/09/27 07:40:40;;;;;;;0.60;0.60;;;;;8.50;94539.00;;;;5115261;28;20198;-64
2022/09/27 07:43:08;;;;;;;0.47;0.47;;;;;8.50;94533.00;;;;5115204;28;20694;-61
2022/09/27 07:45:35;;;;;;;0.50;0.50;;;;;8.60;94538.00;;;;5115312;28;20201;-63
2022/09/27 07:48:05;;;;;;;0.60;0.60;;;;;8.60;94550.00;;;;5115612;28;20198;-63
2022/09/27 07:50:32;;;;;;;0.80;0.80;;;;;8.50;94550.00;;;;5115025;28;20186;-62
2022/09/27 07:52:59;;;;;;;0.60;0.60;;;;;8.60;94557.00;;;;5114927;28;20210;-62
2022/09/27 07:55:26;;;;;;;0.50;0.50;;;;;8.50;94545.00;;;;5096560;28;20233;-62
2022/09/27 07:58:02;;;;;;;0.60;0.60;;;;;8.90;94558.00;;;;5114706;28;20292;-62
2022/09/27 08:00:29;;;;;;;0.50;0.50;;;;;8.90;94557.00;;;;5114814;28;20245;-61
2022/09/27 08:02:56;;;;;;;0.60;0.60;;;;;8.80;94558.00;;;;5114924;28;20193;-63
2022/09/27 08:05:23;;;;;;;0.50;0.50;;;;;8.60;94561.00;;;;5096875;28;20316;-62
2022/09/27 08:07:55;;;;;;;0.47;0.47;;;;;8.60;94575.00;;;;5117769;28;20518;-61
2022/09/27 08:10:29;;;;;;;0.43;0.43;;;;;8.40;94579.00;;;;5118022;28;20189;-61
2022/09/27 08:12:56;;;;;;;0.50;0.50;;;;;8.40;94578.00;;;;5097801;28;20599;-61
2022/09/27 08:15:23;;;;;;;0.50;0.50;;;;;8.00;94575.00;;;;5114332;28;20253;-62
2022/09/27 08:17:50;;;;;;;0.57;0.57;;;;;8.00;94585.00;;;;5114246;28;20351;-61
2022/09/27 08:20:17;;;;;;;0.50;0.50;;;;;8.00;94583.00;;;;5114241;28;20218;-61
2022/09/27 08:22:44;;;;;;;0.40;0.40;;;;;8.10;94589.00;;;;5114190;28;20196;-61
2022/09/27 08:25:13;;;;;;;0.50;0.50;;;;;8.30;94585.00;;;;5114178;28;20686;-61
2022/09/27 08:27:40;;;;;;;0.50;0.50;;;;;8.30;94593.00;;;;5096122;28;20198;-62
2022/09/27 08:30:07;;;;;;;0.40;0.40;;;;;8.20;94594.00;;;;5114074;28;20242;-62
2022/09/27 08:32:36;;;;;;;0.50;0.50;;;;;8.20;94605.00;;;;5095862;28;20220;-61
2022/09/27 08:35:06;;;;;;;0.50;0.50;;;;;8.10;94614.00;;;;5113792;28;20229;-62
2022/09/27 08:37:33;;;;;;;0.50;0.50;;;;;8.30;94589.00;;;;5114176;28;20219;-61
2022/09/27 08:40:00;;;;;;;0.70;0.70;;;;;8.40;94607.00;;;;5114022;28;20197;-61
2022/09/27 08:42:38;;;;;;;0.57;0.57;;;;;8.30;94603.00;;;;5113785;28;20205;-61
2022/09/27 08:45:13;;;;;;;0.70;0.70;;;;;8.20;94598.00;;;;5113515;28;20204;-62
2022/09/27 08:47:43;;;;;;;0.73;0.73;;;;;8.30;94609.00;;;;5113876;28;20304;-61
2022/09/27 08:50:22;;;;;;;0.60;0.60;;;;;8.20;94606.00;;;;5113700;28;20189;-62
2022/09/27 08:52:55;;;;;;;0.67;0.67;;;;;8.10;94605.00;;;;5113670;28;20216;-61
2022/09/27 08:55:27;;;;;;;0.50;0.50;;;;;8.20;94616.00;;;;5113605;28;20198;-60
2022/09/27 08:57:56;;;;;;;0.50;0.50;;;;;8.40;94611.00;;;;5113639;28;20210;-61
2022/09/27 09:00:27;;;;;;;0.47;0.47;;;;;8.30;94610.00;;;;5113872;28;20209;-61
2022/09/27 09:02:55;;;;;;;0.60;0.60;;;;;8.50;94604.00;;;;5113798;28;20190;-61
2022/09/27 09:05:30;;;;;;;0.70;0.70;;;;;8.70;94596.00;;;;5114255;28;20336;-61
2022/09/27 09:08:13;;;;;;;0.60;0.60;;;;;9.00;94605.00;;;;5114388;28;20202;-63
2022/09/27 09:13:49;;;;;;;0.50;0.50;;;;;9.00;94592.00;;;;5095632;28;20385;-61
2022/09/27 09:16:29;;;;;;;0.50;0.50;;;;;9.10;94595.00;;;;5113516;28;20229;-61
2022/09/27 09:19:14;;;;;;;0.50;0.50;;;;;9.10;94591.00;;;;5113751;28;20204;-60
2022/09/27 09:21:53;;;;;;;0.60;0.60;;;;;9.60;94591.00;;;;5095288;28;20373;-61
2022/09/27 09:24:37;;;;;;;0.60;0.60;;;;;9.70;94590.00;;;;5113241;28;20282;-60
2022/09/27 09:27:12;;;;;;;0.50;0.50;;;;;9.60;94592.00;;;;5113272;28;20668;-61
2022/09/27 09:30:00;;;;;;;0.50;0.50;;;;;9.30;94587.00;;;;5113433;28;20232;-62
2022/09/27 09:32:38;;;;;;;0.50;0.50;;;;;9.90;94584.00;;;;5113272;28;20263;-62
2022/09/27 09:35:11;;;;;;;0.60;0.60;;;;;9.70;94585.00;;;;5095331;28;20325;-63
2022/09/27 09:37:42;;;;;;;0.60;0.60;;;;;9.50;94590.00;;;;5113365;28;20552;-61
2022/09/27 09:40:20;;;;;;;0.40;0.40;;;;;9.10;94587.00;;;;5095127;28;20233;-60
2022/09/27 09:42:52;;;;;;;0.90;0.90;;;;;9.30;94573.00;;;;5095164;28;20229;-61
2022/09/27 09:45:22;;;;;;;0.60;0.60;;;;;9.40;94564.00;;;;5113083;28;20224;-60
2022/09/27 09:47:56;;;;;;;0.77;0.77;;;;;9.70;94564.00;;;;5113228;28;20217;-60
2022/09/27 09:50:29;;;;;;;0.73;0.73;;;;;10.20;94566.00;;;;5113257;28;20724;-62
2022/09/27 09:53:03;;;;;;;0.57;0.57;;;;;10.60;94566.00;;;;5113122;28;20198;-61
2022/09/27 09:55:34;;;;;;;0.50;0.50;;;;;10.60;94562.00;;;;5113737;28;20264;-59
2022/09/27 09:58:16;;;;;;;5.50;1.07;;;;;10.50;94590.00;;;;5116802;28;20528;-61
2022/09/27 10:00:46;;;;;;;0.40;0.40;;;;;10.30;94571.00;;;;5116707;28;20190;-61
2022/09/27 10:03:13;;;;;;;0.40;0.40;;;;;10.10;94567.00;;;;5116536;28;20221;-61
2022/09/27 10:05:43;;;;;;;0.50;0.50;;;;;10.30;94563.00;;;;5116401;28;20194;-61
2022/09/27 10:08:16;;;;;;;0.60;0.60;;;;;10.10;94556.00;;;;5116333;28;20270;-61
2022/09/27 10:10:43;;;;;;;0.73;0.73;;;;;10.00;94558.00;;;;5116536;28;20587;-62
2022/09/27 10:13:15;;;;;;;0.60;0.60;;;;;10.50;94561.00;;;;5116426;28;20229;-61
2022/09/27 10:15:49;;;;;;;0.50;0.50;;;;;10.20;94558.00;;;;5098304;28;20229;-62
2022/09/27 10:18:18;;;;;;;2.40;1.47;;;;;10.00;94569.00;;;;5116213;28;20194;-62
2022/09/27 10:20:49;;;;;;;0.63;0.63;;;;;10.20;94553.00;;;;5116254;28;20225;-62
2022/09/27 10:23:19;;;;;;;0.50;0.50;;;;;10.50;94558.00;;;;5116223;28;20202;-61
2022/09/27 10:25:52;;;;;;;0.43;0.43;;;;;10.30;94542.00;;;;5116169;28;20296;-61
2022/09/27 10:28:36;;;;;;;1.00;1.00;;;;;10.10;94554.00;;;;5116032;28;20190;-62
2022/09/27 10:31:06;;;;;;;0.50;0.50;;;;;10.10;94566.00;;;;5097994;28;20654;-62
2022/09/27 10:33:34;;;;;;;0.60;0.60;;;;;9.70;94560.00;;;;5098112;28;20645;-65
2022/09/27 10:36:04;;;;;;;0.50;0.50;;;;;9.60;94564.00;;;;5116298;28;20234;-62
2022/09/27 10:38:32;;;;;;;0.70;0.70;;;;;9.70;94575.00;;;;5098063;28;20284;-63
2022/09/27 10:41:21;;;;;;;0.60;0.60;;;;;9.80;94563.00;;;;5115892;28;20586;-61
2022/09/27 10:43:48;;;;;;;0.60;0.60;;;;;10.00;94568.00;;;;5097925;28;20282;-60
2022/09/27 10:46:25;;;;;;;0.50;0.50;;;;;9.60;94572.00;;;;5115934;28;20238;-59
2022/09/27 10:49:07;;;;;;;0.53;0.53;;;;;9.60;94562.00;;;;5115785;28;20738;-61
2022/09/27 10:51:35;;;;;;;27.20;1.33;;;;;9.50;94565.00;;;;5097692;28;20201;-60
2022/09/27 10:54:02;;;;;;;0.90;0.90;;;;;9.70;94555.00;;;;5115609;28;20241;-62
2022/09/27 10:56:34;;;;;;;0.70;0.70;;;;;9.60;94553.00;;;;5115916;28;20226;-60
2022/09/27 10:59:04;;;;;;;0.50;0.50;;;;;9.90;94558.00;;;;5115822;28;20205;-59
2022/09/27 11:01:41;;;;;;;0.50;0.50;;;;;9.80;94545.00;;;;5115659;28;20206;-62
2022/09/27 11:04:23;;;;;;;0.50;0.50;;;;;9.90;94555.00;;;;5115644;28;20293;-59
2022/09/27 11:06:49;;;;;;;0.50;0.50;;;;;9.60;94547.00;;;;5115541;28;20644;-59
2022/09/27 11:09:22;;;;;;;0.60;0.60;;;;;9.40;94547.00;;;;5115491;28;20190;-60
2022/09/27 11:11:49;;;;;;;0.43;0.43;;;;;9.50;94550.00;;;;5115963;28;20673;-59
2022/09/27 11:14:22;;;;;;;0.60;0.60;;;;;9.50;94529.00;;;;5097819;28;20202;-60
2022/09/27 11:17:12;;;;;;;0.63;0.63;;;;;10.20;94517.00;;;;5115612;28;20601;-58
2022/09/27 11:20:01;;;;;;;0.70;0.70;;;;;10.30;94539.00;;;;5097878;28;20214;-62
2022/09/27 11:22:48;;;;;;;0.50;0.50;;;;;10.10;94553.00;;;;5115363;28;20548;-59
2022/09/27 11:25:29;;;;;;;0.50;0.50;;;;;9.70;94549.00;;;;5115409;28;20255;-61
2022/09/27 11:28:05;;;;;;;0.70;0.70;;;;;10.10;94546.00;;;;5115405;28;20535;-61
2022/09/27 11:30:46;;;;;;;0.50;0.50;;;;;10.20;94543.00;;;;5115365;28;20656;-60
2022/09/27 11:33:51;;;;;;;0.60;0.60;;;;;9.70;94554.00;;;;5097569;28;20198;-61
2022/09/27 11:36:33;;;;;;;0.50;0.50;;;;;9.40;94560.00;;;;5089734;28;20240;-60
2022/09/27 11:39:08;;;;;;;0.50;0.50;;;;;9.40;94549.00;;;;5115269;28;20198;-61
2022/09/27 11:41:56;;;;;;;0.50;0.50;;;;;9.30;94559.00;;;;5115456;28;20651;-58
2022/09/27 11:44:37;;;;;;;0.70;0.70;;;;;9.30;94548.00;;;;5097330;28;20221;-58
2022/09/27 11:47:11;;;;;;;0.50;0.50;;;;;9.40;94540.00;;;;5096959;28;20688;-60
2022/09/27 11:50:17;;;;;;;0.50;0.50;;;;;9.30;94545.00;;;;5114983;28;20197;-60
2022/09/27 11:52:59;;;;;;;0.50;0.50;;;;;9.50;94543.00;;;;5039950;28;20272;-63
2022/09/27 11:55:36;;;;;;;0.60;0.60;;;;;9.40;94544.00;;;;5114767;28;20669;-60
2022/09/27 11:58:11;;;;;;;0.50;0.50;;;;;9.50;94539.00;;;;5114864;28;20301;-57
2022/09/27 12:00:55;;;;;;;0.50;0.50;;;;;9.80;94540.00;;;;5114922;28;20265;-61
2022/09/27 12:03:51;;;;;;;0.60;0.60;;;;;9.70;94542.00;;;;5114765;28;20237;-61
2022/09/27 12:06:23;;;;;;;0.50;0.50;;;;;9.60;94534.00;;;;5114716;28;20218;-60
2022/09/27 12:09:05;;;;;;;0.40;0.40;;;;;9.40;94534.00;;;;5096591;28;20181;-59
2022/09/27 12:11:39;;;;;;;0.57;0.57;;;;;9.60;94529.00;;;;5096473;28;20210;-60
2022/09/27 12:14:13;;;;;;;0.60;0.60;;;;;9.40;94539.00;;;;5096631;28;20197;-60
2022/09/27 12:16:41;;;;;;;0.50;0.50;;;;;9.60;94521.00;;;;5114596;28;20747;-60
2022/09/27 12:19:17;;;;;;;0.50;0.50;;;;;9.50;94521.00;;;;5113631;28;20202;-60
2022/09/27 12:21:44;;;;;;;0.40;0.40;;;;;9.60;94532.00;;;;5096296;28;20229;-59
2022/09/27 12:24:19;;;;;;;0.70;0.70;;;;;9.20;94531.00;;;;5114430;28;20286;-59
2022/09/27 12:26:48;;;;;;;0.60;0.60;;;;;9.20;94522.00;;;;5114440;28;20217;-61
2022/09/27 12:29:21;;;;;;;0.60;0.60;;;;;8.90;94520.00;;;;5114267;28;20213;-60
2022/09/27 12:31:55;;;;;;;0.60;0.60;;;;;9.20;94511.00;;;;5114244;28;20190;-60
2022/09/27 12:34:27;;;;;;;0.80;0.80;;;;;9.30;94526.00;;;;5114283;28;20221;-61
2022/09/27 12:37:01;;;;;;;0.70;0.70;;;;;9.40;94511.00;;;;5114110;28;20205;-62
2022/09/27 12:39:42;;;;;;;0.50;0.50;;;;;9.60;94515.00;;;;5114281;28;20189;-60
2022/09/27 12:42:18;;;;;;;0.60;0.60;;;;;9.50;94506.00;;;;5096453;28;20202;-59
2022/09/27 12:44:45;;;;;;;0.60;0.60;;;;;9.80;94502.00;;;;5096124;28;20232;-61
2022/09/27 12:47:25;;;;;;;0.50;0.50;;;;;9.80;94501.00;;;;5114066;28;20644;-61
2022/09/27 12:50:04;;;;;;;0.50;0.50;;;;;9.90;94497.00;;;;5095957;28;20214;-61
2022/09/27 12:52:36;;;;;;;0.50;0.50;;;;;9.70;94502.00;;;;5095811;28;20201;-61
2022/09/27 12:55:31;;;;;;;0.60;0.60;;;;;9.40;94495.00;;;;5113718;28;20225;-60
2022/09/27 12:58:21;;;;;;;0.60;0.60;;;;;9.30;94512.00;;;;5095702;28;20198;-60